Katherine Aerodrome, Australia
Current Conditions -  °F | °C
As of 2:00 PM on Saturday 20 Dec 2014 (Local Time) from YPTN Reporting Station
Scattered Clouds Scattered Clouds  
Wind Chill: 95°   Ceiling: Unl
Heat Index: 107°   Visibility: 6mi
Dew Point: 75°   Wind: 6mph
Humidity: 53%   Direction: 290°WNW
Pressure: 29.71"   Gusts: NA
Location:  14.43°S, 132.27°E
Report Text: YPTN 200500Z AUTO 29005KT 9999 // SCT045 35/24 Q1006
Loading
Personal Weather Stations






























Interactive Weather Map New forecast layout! Learn more

10-Day Weather Forecast

Advertisements
Track Severe Weather on mobile